createdAt,value
2018-03-15T00:00:33.574Z,998.90
2018-03-15T00:01:34.496Z,998.82
2018-03-15T00:03:29.520Z,998.78
2018-03-15T00:04:29.493Z,998.81
2018-03-15T00:06:25.454Z,998.75
2018-03-15T00:07:26.439Z,998.73
2018-03-15T00:09:21.453Z,998.69
2018-03-15T00:10:21.368Z,998.69
2018-03-15T00:12:17.350Z,998.65
2018-03-15T00:13:17.307Z,998.66
2018-03-15T00:15:13.274Z,998.55
2018-03-15T00:16:13.220Z,998.52
2018-03-15T00:18:09.683Z,998.56
2018-03-15T00:19:09.176Z,998.55
2018-03-15T00:21:05.136Z,998.56
2018-03-15T00:22:05.630Z,998.55
2018-03-15T00:24:02.049Z,998.55
2018-03-15T00:25:01.042Z,998.53
2018-03-15T00:26:57.010Z,998.51
2018-03-15T00:27:56.973Z,998.49
2018-03-15T00:29:53.912Z,998.49
2018-03-15T00:30:53.424Z,998.51
2018-03-15T00:32:50.341Z,998.52
2018-03-15T00:33:49.826Z,998.49
2018-03-15T00:35:45.753Z,998.45
2018-03-15T00:36:46.272Z,998.44
2018-03-15T00:38:41.637Z,998.44
2018-03-15T00:39:41.690Z,998.38
2018-03-15T00:41:37.581Z,998.38
2018-03-15T00:42:37.566Z,998.39
2018-03-15T00:44:33.028Z,998.37
2018-03-15T00:45:33.526Z,998.40
2018-03-15T00:47:26.446Z,998.37
2018-03-15T00:48:26.402Z,998.40
2018-03-15T00:50:22.357Z,998.41
2018-03-15T00:51:22.353Z,998.34
2018-03-15T00:53:18.304Z,998.36
2018-03-15T00:54:18.263Z,998.38
2018-03-15T00:56:15.716Z,998.36
2018-03-15T00:57:14.723Z,998.37
2018-03-15T00:59:10.082Z,998.34
2018-03-15T01:00:10.096Z,998.36
2018-03-15T01:02:07.031Z,998.30
2018-03-15T01:03:06.020Z,998.28
2018-03-15T01:05:01.955Z,998.27
2018-03-15T01:06:01.939Z,998.25
2018-03-15T01:07:58.893Z,998.24
2018-03-15T01:08:58.389Z,998.25
2018-03-15T01:10:53.846Z,998.26
2018-03-15T01:11:53.813Z,998.19
2018-03-15T01:13:49.766Z,998.18
2018-03-15T01:14:50.273Z,998.18
2018-03-15T01:16:45.703Z,998.12
2018-03-15T01:17:46.188Z,998.11
2018-03-15T01:19:42.108Z,998.03
2018-03-15T01:20:41.607Z,998.03
2018-03-15T01:22:37.554Z,997.94
2018-03-15T01:23:36.042Z,997.94
2018-03-15T01:25:32.011Z,997.96
2018-03-15T01:26:31.943Z,997.95
2018-03-15T01:28:27.895Z,997.91
2018-03-15T01:29:27.834Z,997.95
2018-03-15T01:31:24.771Z,997.92
2018-03-15T01:32:24.779Z,997.89
2018-03-15T01:34:19.714Z,997.86
2018-03-15T01:35:19.725Z,997.79
2018-03-15T01:37:16.183Z,997.79
2018-03-15T01:38:15.700Z,997.79
2018-03-15T01:40:11.575Z,997.73
2018-03-15T01:41:11.575Z,997.74
2018-03-15T01:43:07.533Z,997.69
2018-03-15T01:44:08.029Z,997.69
2018-03-15T01:46:03.471Z,997.68
2018-03-15T01:47:03.422Z,997.62
2018-03-15T01:48:59.379Z,997.60
2018-03-15T01:49:59.859Z,997.67
2018-03-15T01:51:55.254Z,997.57
2018-03-15T01:52:56.184Z,997.56
2018-03-15T01:54:51.682Z,997.60
2018-03-15T01:55:51.678Z,997.52
2018-03-15T01:57:51.100Z,997.51
2018-03-15T01:58:50.104Z,997.45
2018-03-15T02:00:45.668Z,997.41
2018-03-15T02:01:45.116Z,997.41
2018-03-15T02:03:41.074Z,997.42
2018-03-15T02:04:42.491Z,997.42
2018-03-15T02:06:35.474Z,997.33
2018-03-15T02:07:35.481Z,997.35
2018-03-15T02:09:31.421Z,997.35
2018-03-15T02:10:31.413Z,997.36
2018-03-15T02:12:25.885Z,997.32
2018-03-15T02:13:25.826Z,997.28
2018-03-15T02:15:22.285Z,997.24
2018-03-15T02:16:21.786Z,997.21
2018-03-15T02:18:18.238Z,997.19
2018-03-15T02:19:17.665Z,997.20
2018-03-15T02:21:13.576Z,997.14
2018-03-15T02:22:13.594Z,997.16
2018-03-15T02:24:09.510Z,997.06
2018-03-15T02:25:09.504Z,997.01
2018-03-15T02:27:05.493Z,997.05
2018-03-15T02:28:05.980Z,997.00
2018-03-15T02:30:00.384Z,996.94
2018-03-15T02:31:00.379Z,996.98
2018-03-15T02:32:55.805Z,996.93
2018-03-15T02:33:55.782Z,996.95
2018-03-15T02:35:51.740Z,996.92
2018-03-15T02:36:51.701Z,996.89
2018-03-15T02:38:47.590Z,996.86
2018-03-15T02:39:47.604Z,996.88
2018-03-15T02:41:44.055Z,996.85
2018-03-15T02:42:43.527Z,996.84
2018-03-15T02:44:39.980Z,996.81
2018-03-15T02:45:39.963Z,996.75
2018-03-15T02:47:35.409Z,996.81
2018-03-15T02:48:35.382Z,996.71
2018-03-15T02:50:31.351Z,996.74
2018-03-15T02:51:31.848Z,996.71
2018-03-15T02:53:27.243Z,996.56
2018-03-15T02:54:27.756Z,996.67
2018-03-15T02:56:23.186Z,996.68
2018-03-15T02:57:23.164Z,996.60
2018-03-15T02:59:19.623Z,996.58
2018-03-15T03:00:19.106Z,996.58
2018-03-15T03:02:15.015Z,996.61
2018-03-15T03:03:15.545Z,996.60
2018-03-15T03:05:11.453Z,996.51
2018-03-15T03:06:10.941Z,996.59
2018-03-15T03:08:06.879Z,996.53
2018-03-15T03:09:06.879Z,996.46
2018-03-15T03:11:02.931Z,996.52
2018-03-15T03:12:02.813Z,996.47
2018-03-15T03:13:59.255Z,996.39
2018-03-15T03:14:58.737Z,996.44
2018-03-15T03:16:54.693Z,996.39
2018-03-15T03:17:55.174Z,996.42
2018-03-15T03:19:50.580Z,996.36
2018-03-15T03:20:50.591Z,996.32
2018-03-15T03:22:46.559Z,996.33
2018-03-15T03:23:46.530Z,996.29
2018-03-15T03:25:42.482Z,996.28
2018-03-15T03:26:42.443Z,996.27
2018-03-15T03:28:38.900Z,996.27
2018-03-15T03:29:38.332Z,996.25
2018-03-15T03:31:34.272Z,996.26
2018-03-15T03:32:34.260Z,996.23
2018-03-15T03:34:30.178Z,996.17
2018-03-15T03:35:30.182Z,996.25
2018-03-15T03:37:26.670Z,996.18
2018-03-15T03:38:26.638Z,996.23
2018-03-15T03:40:22.027Z,996.21
2018-03-15T03:41:22.033Z,996.19
2018-03-15T03:43:17.954Z,996.15
2018-03-15T03:44:18.490Z,996.19
2018-03-15T03:46:13.937Z,996.14
2018-03-15T03:47:14.404Z,996.10
2018-03-15T03:49:09.806Z,996.01
2018-03-15T03:50:09.798Z,996.04
2018-03-15T03:52:06.245Z,995.99
2018-03-15T03:53:05.703Z,995.95
2018-03-15T03:55:03.151Z,995.94
2018-03-15T03:56:01.634Z,995.94
2018-03-15T03:57:57.569Z,995.89
2018-03-15T03:58:57.560Z,995.82
2018-03-15T04:00:53.511Z,995.84
2018-03-15T04:01:54.011Z,995.75
2018-03-15T04:03:49.400Z,995.75
2018-03-15T04:04:49.409Z,995.71
2018-03-15T04:06:45.385Z,995.65
2018-03-15T04:07:45.847Z,995.66
2018-03-15T04:09:39.769Z,995.57
2018-03-15T04:10:40.301Z,995.57
2018-03-15T04:12:35.721Z,995.56
2018-03-15T04:13:36.226Z,995.53
2018-03-15T04:15:31.650Z,995.54
2018-03-15T04:17:48.599Z,995.56
2018-03-15T04:18:47.574Z,995.62
2018-03-15T04:20:43.487Z,995.52
2018-03-15T04:21:43.475Z,995.50
2018-03-15T04:23:41.421Z,995.57
2018-03-15T04:24:39.913Z,995.41
2018-03-15T04:26:35.386Z,995.45
2018-03-15T04:27:35.346Z,995.38
2018-03-15T04:29:31.790Z,995.41
2018-03-15T04:30:31.272Z,995.34
2018-03-15T04:32:27.196Z,995.40
2018-03-15T04:33:27.206Z,995.36
2018-03-15T04:35:22.629Z,995.36
2018-03-15T04:36:23.165Z,995.31
2018-03-15T04:38:18.526Z,995.27
2018-03-15T04:39:19.077Z,995.22
2018-03-15T04:41:14.430Z,995.12
2018-03-15T04:42:14.429Z,995.17
2018-03-15T04:44:10.877Z,995.11
2018-03-15T04:45:10.880Z,995.13
2018-03-15T04:47:06.280Z,995.07
2018-03-15T04:48:06.259Z,995.09
2018-03-15T04:50:02.220Z,995.03
2018-03-15T04:51:02.716Z,994.96
2018-03-15T04:52:58.125Z,994.97
2018-03-15T04:53:58.112Z,995.04
2018-03-15T04:55:54.067Z,994.99
2018-03-15T04:56:54.035Z,995.03
2018-03-15T04:58:50.491Z,994.94
2018-03-15T04:59:49.928Z,994.98
2018-03-15T05:01:46.378Z,994.89
2018-03-15T05:02:45.871Z,994.85
2018-03-15T05:04:41.795Z,994.77
2018-03-15T05:05:42.359Z,994.80
2018-03-15T05:07:37.728Z,994.79
2018-03-15T05:08:37.720Z,994.75
2018-03-15T05:10:33.652Z,994.71
2018-03-15T05:11:33.644Z,994.65
2018-03-15T05:13:29.579Z,994.65
2018-03-15T05:14:29.592Z,994.67
2018-03-15T05:16:24.526Z,994.65
2018-03-15T05:17:24.020Z,994.71
2018-03-15T05:19:20.454Z,994.71
2018-03-15T05:20:19.922Z,994.64
2018-03-15T05:22:14.871Z,994.63
2018-03-15T05:23:14.328Z,994.52
2018-03-15T05:25:10.279Z,994.57
2018-03-15T05:26:10.259Z,994.56
2018-03-15T05:31:16.458Z,994.57
2018-03-15T05:32:15.949Z,994.57
2018-03-15T05:34:21.875Z,994.53
2018-03-15T05:36:36.849Z,994.55
2018-03-15T05:37:36.811Z,994.59
2018-03-15T05:39:32.783Z,994.63
2018-03-15T05:41:49.189Z,994.60
2018-03-15T05:42:50.181Z,994.52
2018-03-15T05:44:45.149Z,994.51
2018-03-15T05:45:46.123Z,994.51
2018-03-15T05:47:41.065Z,994.49
2018-03-15T05:48:41.036Z,994.53
2018-03-15T05:51:22.079Z,994.39
2018-03-15T05:52:22.483Z,994.45
2018-03-15T05:54:17.574Z,994.40
2018-03-15T05:55:17.516Z,994.44
2018-03-15T05:57:25.472Z,994.41
2018-03-15T05:58:24.967Z,994.37
2018-03-15T06:01:19.896Z,994.34
2018-03-15T06:02:11.520Z,994.38
2018-03-15T06:04:09.985Z,994.28
2018-03-15T06:05:11.474Z,994.35
2018-03-15T06:07:04.039Z,994.30
2018-03-15T06:08:04.510Z,994.33
2018-03-15T06:10:00.934Z,994.35
2018-03-15T06:10:59.916Z,994.35
2018-03-15T06:13:07.368Z,994.37
2018-03-15T06:15:23.802Z,994.33
2018-03-15T06:16:24.307Z,994.33
2018-03-15T06:18:20.248Z,994.37
2018-03-15T06:19:18.734Z,994.39
2018-03-15T06:22:31.693Z,994.44
2018-03-15T06:23:30.464Z,994.48
2018-03-15T06:25:25.405Z,994.51
2018-03-15T06:26:24.903Z,994.48
2018-03-15T06:28:21.370Z,994.39
2018-03-15T06:29:21.345Z,994.44
2018-03-15T06:31:32.768Z,994.35
2018-03-15T06:32:33.746Z,994.36
2018-03-15T06:36:14.813Z,994.37
2018-03-15T06:38:30.257Z,994.31
2018-03-15T06:41:32.159Z,994.31
2018-03-15T06:42:32.145Z,994.32
2018-03-15T06:44:29.624Z,994.30
2018-03-15T06:45:29.574Z,994.24
2018-03-15T06:47:29.010Z,994.24
2018-03-15T06:48:25.017Z,994.22
2018-03-15T06:50:47.491Z,994.24
2018-03-15T06:51:47.998Z,994.22
2018-03-15T06:53:43.107Z,994.15
2018-03-15T06:54:44.593Z,994.18
2018-03-15T06:56:49.053Z,994.14
2018-03-15T06:57:49.093Z,994.11
2018-03-15T06:59:44.459Z,994.03
2018-03-15T07:00:44.453Z,994.13
2018-03-15T07:02:40.440Z,994.11
2018-03-15T07:03:40.434Z,994.13
2018-03-15T07:05:36.386Z,994.11
2018-03-15T07:06:36.357Z,994.14
2018-03-15T07:08:32.354Z,994.13
2018-03-15T07:09:32.256Z,994.08
2018-03-15T07:11:28.197Z,994.12
2018-03-15T07:12:28.183Z,994.14
2018-03-15T07:14:24.623Z,994.12
2018-03-15T07:15:24.096Z,994.08
2018-03-15T07:17:19.078Z,994.08
2018-03-15T07:18:18.553Z,994.07
2018-03-15T07:20:15.000Z,994.06
2018-03-15T07:21:14.481Z,994.04
2018-03-15T07:23:10.405Z,994.07
2018-03-15T07:24:10.398Z,994.12
2018-03-15T07:26:06.853Z,994.12
2018-03-15T07:27:06.359Z,994.12
2018-03-15T07:29:02.809Z,993.97
2018-03-15T07:30:02.282Z,994.04
2018-03-15T07:31:58.232Z,994.03
2018-03-15T07:32:58.181Z,994.09
2018-03-15T07:34:54.653Z,994.04
2018-03-15T07:35:54.636Z,994.01
2018-03-15T07:37:50.097Z,993.99
2018-03-15T07:38:50.074Z,993.96
2018-03-15T07:40:46.056Z,993.98
2018-03-15T07:41:45.992Z,994.07
2018-03-15T07:43:41.977Z,994.06
2018-03-15T07:44:42.453Z,994.06
2018-03-15T07:46:42.872Z,994.12
2018-03-15T07:47:42.875Z,994.04
2018-03-15T07:49:38.826Z,994.07
2018-03-15T07:50:38.796Z,994.11
2018-03-15T07:52:34.743Z,993.98
2018-03-15T07:53:34.737Z,994.01
2018-03-15T07:55:30.667Z,994.02
2018-03-15T07:56:30.658Z,994.05
2018-03-15T07:58:25.593Z,994.02
2018-03-15T07:59:24.528Z,993.98
2018-03-15T08:01:20.500Z,994.03
2018-03-15T08:02:21.991Z,994.05
2018-03-15T08:04:17.433Z,994.06
2018-03-15T08:05:16.928Z,994.10
2018-03-15T08:07:12.847Z,994.05
2018-03-15T08:08:12.862Z,994.02
2018-03-15T08:10:08.281Z,994.00
2018-03-15T08:13:02.692Z,994.06
2018-03-15T08:14:02.685Z,993.96
2018-03-15T08:15:58.655Z,994.05
2018-03-15T08:16:58.645Z,993.92
2018-03-15T08:18:54.616Z,993.95
2018-03-15T08:19:55.088Z,993.95
2018-03-15T08:21:50.999Z,993.93
2018-03-15T08:22:50.495Z,993.93
2018-03-15T08:24:46.429Z,993.95
2018-03-15T08:25:46.957Z,993.95
2018-03-15T08:27:42.386Z,993.84
2018-03-15T08:28:42.372Z,993.87
2018-03-15T08:30:42.830Z,993.81
2018-03-15T08:31:42.808Z,993.79
2018-03-15T08:33:38.758Z,993.78
2018-03-15T08:34:39.281Z,993.78
2018-03-15T08:36:34.700Z,993.69
2018-03-15T08:37:34.690Z,993.69
2018-03-15T08:39:28.644Z,993.64
2018-03-15T08:40:28.127Z,993.70
2018-03-15T08:42:21.657Z,993.74
2018-03-15T08:43:21.531Z,993.66
2018-03-15T08:45:16.003Z,993.58
2018-03-15T08:46:16.975Z,993.62
2018-03-15T08:48:10.940Z,993.54
2018-03-15T08:49:10.436Z,993.58
2018-03-15T08:51:06.372Z,993.50
2018-03-15T08:52:04.874Z,993.52
2018-03-15T08:54:00.852Z,993.51
2018-03-15T08:55:00.827Z,993.48
2018-03-15T08:56:55.260Z,993.44
2018-03-15T08:57:55.268Z,993.48
2018-03-15T08:59:49.709Z,993.36
2018-03-15T09:00:49.672Z,993.41
2018-03-15T09:02:46.134Z,993.33
2018-03-15T09:03:45.608Z,993.33
2018-03-15T09:05:39.065Z,993.28
2018-03-15T09:06:39.571Z,993.23
2018-03-15T09:08:35.017Z,993.27
2018-03-15T09:09:34.950Z,993.25
2018-03-15T09:11:29.913Z,993.24
2018-03-15T09:12:29.394Z,993.26
2018-03-15T09:14:24.849Z,993.17
2018-03-15T09:15:23.845Z,993.19
2018-03-15T09:17:19.812Z,993.17
2018-03-15T09:18:19.820Z,993.10
2018-03-15T09:20:14.208Z,992.99
2018-03-15T09:21:14.731Z,993.07
2018-03-15T09:23:08.697Z,993.10
2018-03-15T09:24:08.641Z,993.07
2018-03-15T09:26:03.069Z,993.06
2018-03-15T09:27:03.083Z,993.07
2018-03-15T09:28:57.039Z,993.08
2018-03-15T09:29:56.501Z,993.06
2018-03-15T09:31:50.954Z,993.02
2018-03-15T09:32:50.924Z,993.01
2018-03-15T09:34:46.302Z,992.97
2018-03-15T09:35:45.357Z,993.00
2018-03-15T09:37:39.318Z,992.94
2018-03-15T09:38:38.802Z,992.90
2018-03-15T09:40:33.335Z,992.98
2018-03-15T09:41:33.243Z,992.97
2018-03-15T09:43:27.722Z,992.94
2018-03-15T09:44:28.206Z,992.98
2018-03-15T09:46:22.643Z,992.94
2018-03-15T09:47:22.130Z,992.89
2018-03-15T09:49:15.567Z,992.94
2018-03-15T09:50:15.561Z,992.88
2018-03-15T09:52:08.992Z,992.89
2018-03-15T09:53:09.009Z,992.91
2018-03-15T09:55:03.446Z,992.90
2018-03-15T09:56:04.382Z,992.85
2018-03-15T09:57:56.886Z,992.83
2018-03-15T09:58:56.882Z,992.80
2018-03-15T10:00:51.291Z,992.79
2018-03-15T10:01:51.304Z,992.81
2018-03-15T10:03:45.263Z,992.70
2018-03-15T10:04:44.737Z,992.71
2018-03-15T10:06:39.682Z,992.71
2018-03-15T10:07:39.175Z,992.70
2018-03-15T10:09:33.636Z,992.70
2018-03-15T10:10:33.600Z,992.72
2018-03-15T10:12:28.074Z,992.67
2018-03-15T10:13:28.045Z,992.71
2018-03-15T10:15:23.006Z,992.67
2018-03-15T10:16:22.498Z,992.70
2018-03-15T10:18:17.483Z,992.64
2018-03-15T10:19:16.900Z,992.63
2018-03-15T10:21:11.322Z,992.61
2018-03-15T10:22:11.364Z,992.65
2018-03-15T10:24:06.778Z,992.61
2018-03-15T10:25:13.610Z,992.64
2018-03-15T10:27:01.734Z,992.61
2018-03-15T10:28:01.742Z,992.67
2018-03-15T10:29:56.219Z,992.55
2018-03-15T10:30:56.231Z,992.58
2018-03-15T10:32:51.148Z,992.58
2018-03-15T10:33:51.152Z,992.57
2018-03-15T10:35:46.597Z,992.56
2018-03-15T10:36:45.087Z,992.55
2018-03-15T10:38:39.494Z,992.50
2018-03-15T10:39:39.507Z,992.48
2018-03-15T10:41:33.958Z,992.47
2018-03-15T10:42:34.473Z,992.48
2018-03-15T10:44:28.426Z,992.48
2018-03-15T10:45:28.386Z,992.44
2018-03-15T10:47:23.380Z,992.43
2018-03-15T10:48:22.838Z,992.43
2018-03-15T10:50:19.284Z,992.42
2018-03-15T10:51:18.786Z,992.41
2018-03-15T10:53:13.225Z,992.37
2018-03-15T10:54:13.214Z,992.39
2018-03-15T10:56:06.648Z,992.38
2018-03-15T10:57:06.651Z,992.34
2018-03-15T10:59:01.074Z,992.31
2018-03-15T11:00:01.178Z,992.31
2018-03-15T11:01:55.036Z,992.28
2018-03-15T11:02:55.033Z,992.26
2018-03-15T11:04:49.984Z,992.36
2018-03-15T11:05:49.005Z,992.23
2018-03-15T11:07:43.460Z,992.31
2018-03-15T11:08:43.953Z,992.24
2018-03-15T11:10:38.414Z,992.24
2018-03-15T11:11:38.108Z,992.25
2018-03-15T11:13:32.605Z,992.21
2018-03-15T11:14:32.569Z,992.22
2018-03-15T11:16:28.532Z,992.21
2018-03-15T11:17:28.498Z,992.20
2018-03-15T11:19:21.938Z,992.25
2018-03-15T11:20:21.963Z,992.22
2018-03-15T11:22:16.408Z,992.21
2018-03-15T11:23:16.904Z,992.29
2018-03-15T11:25:11.377Z,992.27
2018-03-15T11:26:11.348Z,992.32
2018-03-15T11:28:07.304Z,992.27
2018-03-15T11:29:06.799Z,992.28
2018-03-15T11:31:00.786Z,992.27
2018-03-15T11:32:00.258Z,992.32
2018-03-15T11:33:54.729Z,992.27
2018-03-15T11:34:54.713Z,992.17
2018-03-15T11:36:50.700Z,992.10
2018-03-15T11:37:50.666Z,992.14
2018-03-15T11:39:45.626Z,992.09
2018-03-15T11:40:45.120Z,992.13
2018-03-15T11:42:38.584Z,992.16
2018-03-15T11:43:38.591Z,992.13
2018-03-15T11:45:37.043Z,992.10
2018-03-15T11:46:36.540Z,992.11
2018-03-15T11:48:30.007Z,992.14
2018-03-15T11:49:29.985Z,992.13
2018-03-15T11:51:24.914Z,992.14
2018-03-15T11:52:24.414Z,992.12
2018-03-15T11:54:18.878Z,992.14
2018-03-15T11:55:18.852Z,992.10
2018-03-15T11:57:14.829Z,992.06
2018-03-15T11:58:14.807Z,992.03
2018-03-15T12:00:11.283Z,992.06
2018-03-15T12:01:10.750Z,992.05
2018-03-15T12:03:04.721Z,992.06
2018-03-15T12:04:04.198Z,992.05
2018-03-15T12:05:58.679Z,991.98
2018-03-15T12:06:58.657Z,992.02
2018-03-15T12:08:53.624Z,991.98
2018-03-15T12:09:53.083Z,991.99
2018-03-15T12:11:47.552Z,992.02
2018-03-15T12:12:48.023Z,992.01
2018-03-15T12:14:43.499Z,991.91
2018-03-15T12:15:43.965Z,991.93
2018-03-15T12:17:39.418Z,991.93
2018-03-15T12:18:39.421Z,991.95
2018-03-15T12:20:33.380Z,991.91
2018-03-15T12:21:32.853Z,991.84
2018-03-15T12:23:27.326Z,991.89
2018-03-15T12:24:27.294Z,991.79
2018-03-15T12:26:23.238Z,991.82
2018-03-15T12:27:23.755Z,991.78
2018-03-15T12:29:17.719Z,991.76
2018-03-15T12:30:17.684Z,991.80
2018-03-15T12:32:15.144Z,991.76
2018-03-15T12:33:13.664Z,991.75
2018-03-15T12:35:12.771Z,991.73
2018-03-15T12:36:11.744Z,991.72
2018-03-15T12:38:07.687Z,991.71
2018-03-15T12:39:06.691Z,991.66
2018-03-15T12:41:00.652Z,991.66
2018-03-15T12:41:59.652Z,991.60
2018-03-15T12:43:55.637Z,991.65
2018-03-15T12:44:55.635Z,991.55
2018-03-15T12:46:50.560Z,991.55
2018-03-15T12:47:50.042Z,991.51
2018-03-15T12:49:47.011Z,991.52
2018-03-15T12:50:45.994Z,991.51
2018-03-15T12:52:39.450Z,991.44
2018-03-15T12:53:39.459Z,991.49
2018-03-15T12:55:34.413Z,991.38
2018-03-15T12:56:34.398Z,991.33
2018-03-15T12:58:28.363Z,991.35
2018-03-15T12:59:28.299Z,991.33
2018-03-15T13:01:21.775Z,991.34
2018-03-15T13:02:22.254Z,991.32
2018-03-15T13:04:19.130Z,991.32
2018-03-15T13:05:17.686Z,991.29
2018-03-15T13:07:11.127Z,991.33
2018-03-15T13:08:11.140Z,991.30
2018-03-15T13:10:05.607Z,991.22
2018-03-15T13:11:05.580Z,991.13
2018-03-15T13:13:00.077Z,991.18
2018-03-15T13:14:00.029Z,991.08
2018-03-15T13:15:54.522Z,991.15
2018-03-15T13:16:54.516Z,991.16
2018-03-15T13:18:48.906Z,991.16
2018-03-15T13:19:48.920Z,991.08
2018-03-15T13:21:44.380Z,991.08
2018-03-15T13:22:43.366Z,991.09
2018-03-15T13:24:39.341Z,991.06
2018-03-15T13:25:39.322Z,991.06
2018-03-15T13:27:34.295Z,991.03
2018-03-15T13:28:33.791Z,990.95
2018-03-15T13:30:27.306Z,991.02
2018-03-15T13:31:27.277Z,991.02
2018-03-15T13:33:21.720Z,991.03
2018-03-15T13:34:21.753Z,991.06
2018-03-15T13:36:16.180Z,991.01
2018-03-15T13:37:16.205Z,990.98
2018-03-15T13:39:09.662Z,991.00
2018-03-15T13:40:09.587Z,990.98
2018-03-15T13:42:05.565Z,990.97
2018-03-15T13:43:05.549Z,990.93
2018-03-15T13:45:02.010Z,990.90
2018-03-15T13:46:01.488Z,990.94
2018-03-15T13:47:55.963Z,990.92
2018-03-15T13:48:55.933Z,990.90
2018-03-15T13:50:52.317Z,991.00
2018-03-15T13:51:50.385Z,990.95
2018-03-15T13:53:44.836Z,990.99
2018-03-15T13:54:43.915Z,990.94
2018-03-15T13:56:37.875Z,991.03
2018-03-15T13:57:37.369Z,991.02
2018-03-15T13:59:31.328Z,990.99
2018-03-15T14:00:30.839Z,990.99
2018-03-15T14:02:27.219Z,991.01
2018-03-15T14:03:26.305Z,991.01
2018-03-15T14:05:20.256Z,990.94
2018-03-15T14:06:20.765Z,990.96
2018-03-15T14:08:14.244Z,990.91
2018-03-15T14:09:14.182Z,990.81
2018-03-15T14:11:07.642Z,990.77
2018-03-15T14:12:07.643Z,990.76
2018-03-15T14:14:03.599Z,990.74
2018-03-15T14:15:02.601Z,990.77
2018-03-15T14:16:58.073Z,990.76
2018-03-15T14:17:59.044Z,990.76
2018-03-15T14:19:52.516Z,990.74
2018-03-15T14:20:51.496Z,990.75
2018-03-15T14:22:45.456Z,990.76
2018-03-15T14:23:45.456Z,990.70
2018-03-15T14:25:40.918Z,990.60
2018-03-15T14:26:39.398Z,990.66
2018-03-15T14:28:34.350Z,990.58
2018-03-15T14:29:33.851Z,990.63
2018-03-15T14:31:28.246Z,990.63
2018-03-15T14:32:28.257Z,990.58
2018-03-15T14:34:23.217Z,990.53
2018-03-15T14:35:22.698Z,990.50
2018-03-15T14:37:18.161Z,990.55
2018-03-15T14:38:17.145Z,990.53
2018-03-15T14:40:11.595Z,990.55
2018-03-15T14:41:11.605Z,990.56
2018-03-15T14:43:07.044Z,990.53
2018-03-15T14:44:06.554Z,990.50
2018-03-15T14:46:00.002Z,990.59
2018-03-15T14:46:59.494Z,990.63
2018-03-15T14:48:55.972Z,990.68
2018-03-15T14:49:56.381Z,990.73
2018-03-15T14:51:52.362Z,990.81
2018-03-15T14:52:51.862Z,990.79
2018-03-15T14:54:44.816Z,990.81
2018-03-15T14:55:46.249Z,990.74
2018-03-15T14:57:39.280Z,990.71
2018-03-15T14:58:39.274Z,990.69
2018-03-15T15:00:32.747Z,990.74
2018-03-15T15:01:34.219Z,990.72
2018-03-15T15:03:27.195Z,990.77
2018-03-15T15:04:27.160Z,990.73
2018-03-15T15:06:21.178Z,990.74
2018-03-15T15:07:21.121Z,990.75
2018-03-15T15:09:16.599Z,990.77
2018-03-15T15:10:16.562Z,990.74
2018-03-15T15:12:11.036Z,990.74
2018-03-15T15:13:11.022Z,990.72
2018-03-15T15:15:05.486Z,990.74
2018-03-15T15:16:05.966Z,990.73
2018-03-15T15:17:59.923Z,990.66
2018-03-15T15:19:00.414Z,990.76
2018-03-15T15:20:54.365Z,990.74
2018-03-15T15:21:54.340Z,990.75
2018-03-15T15:23:48.828Z,990.78
2018-03-15T15:24:49.317Z,990.83
2018-03-15T15:26:42.279Z,990.92
2018-03-15T15:27:42.752Z,990.88
2018-03-15T15:29:35.698Z,990.89
2018-03-15T15:30:36.703Z,990.85
2018-03-15T15:32:29.156Z,990.86
2018-03-15T15:33:29.157Z,990.83
2018-03-15T15:35:23.623Z,990.85
2018-03-15T15:36:23.594Z,990.87
2018-03-15T15:38:19.066Z,990.84
2018-03-15T15:39:18.563Z,990.87
2018-03-15T15:41:11.546Z,990.87
2018-03-15T15:42:12.463Z,990.88
2018-03-15T15:44:07.994Z,990.89
2018-03-15T15:45:07.475Z,990.95
2018-03-15T15:47:04.440Z,990.96
2018-03-15T15:48:02.442Z,990.91
2018-03-15T15:49:56.392Z,990.89
2018-03-15T15:50:55.877Z,990.89
2018-03-15T15:52:49.812Z,990.93
2018-03-15T15:53:50.326Z,990.91
2018-03-15T15:55:44.305Z,990.95
2018-03-15T15:56:44.765Z,990.96
2018-03-15T15:58:38.215Z,990.94
2018-03-15T15:59:37.662Z,990.95
2018-03-15T16:01:33.634Z,990.99
2018-03-15T16:02:34.124Z,991.01
2018-03-15T16:04:28.008Z,991.02
2018-03-15T16:05:28.578Z,991.02
2018-03-15T16:07:24.009Z,991.02
2018-03-15T16:08:23.512Z,991.00
2018-03-15T16:10:18.987Z,991.04
2018-03-15T16:11:18.952Z,991.07
2018-03-15T16:13:13.432Z,991.03
2018-03-15T16:14:12.417Z,991.05
2018-03-15T16:16:05.875Z,991.04
2018-03-15T16:17:05.869Z,991.07
2018-03-15T16:19:01.828Z,991.09
2018-03-15T16:20:01.774Z,991.07
2018-03-15T16:21:56.226Z,991.12
2018-03-15T16:22:55.715Z,991.12
2018-03-15T16:24:48.662Z,991.11
2018-03-15T16:25:49.166Z,991.15
2018-03-15T16:27:42.111Z,991.16
2018-03-15T16:28:42.597Z,991.17
2018-03-15T16:30:35.554Z,991.24
2018-03-15T16:31:36.040Z,991.24
2018-03-15T16:33:29.996Z,991.20
2018-03-15T16:34:30.488Z,991.21
2018-03-15T16:36:24.402Z,991.22
2018-03-15T16:37:24.452Z,991.24
2018-03-15T16:39:19.371Z,991.21
2018-03-15T16:40:19.373Z,991.24
2018-03-15T16:42:13.802Z,991.28
2018-03-15T16:43:13.855Z,991.30
2018-03-15T16:45:06.764Z,991.30
2018-03-15T16:46:06.714Z,991.29
2018-03-15T16:48:01.672Z,991.29
2018-03-15T16:49:01.162Z,991.29
2018-03-15T16:51:01.044Z,991.29
2018-03-15T16:51:59.616Z,991.32
2018-03-15T16:53:56.545Z,991.33
2018-03-15T16:54:55.552Z,991.37
2018-03-15T16:56:49.586Z,991.35
2018-03-15T16:57:49.531Z,991.34
2018-03-15T16:59:44.488Z,991.31
2018-03-15T17:00:44.978Z,991.27
2018-03-15T17:02:37.956Z,991.27
2018-03-15T17:03:37.440Z,991.25
2018-03-15T17:05:33.421Z,991.23
2018-03-15T17:06:33.377Z,991.19
2018-03-15T17:08:26.849Z,991.19
2018-03-15T17:09:26.804Z,991.18
2018-03-15T17:11:21.255Z,991.17
2018-03-15T17:12:20.248Z,991.15
2018-03-15T17:14:14.697Z,991.13
2018-03-15T17:15:15.640Z,991.17
2018-03-15T17:17:08.133Z,991.16
2018-03-15T17:18:08.662Z,991.13
2018-03-15T17:20:05.106Z,991.16
2018-03-15T17:21:03.582Z,991.12
2018-03-15T17:22:57.092Z,991.18
2018-03-15T17:23:57.570Z,991.19
2018-03-15T17:25:51.506Z,991.24
2018-03-15T17:26:52.003Z,991.29
2018-03-15T17:28:45.971Z,991.32
2018-03-15T17:29:45.892Z,991.30
2018-03-15T17:31:41.851Z,991.31
2018-03-15T17:32:40.405Z,991.33
2018-03-15T17:34:33.822Z,991.42
2018-03-15T17:35:34.343Z,991.40
2018-03-15T17:37:28.286Z,991.47
2018-03-15T17:38:28.273Z,991.49
2018-03-15T17:40:21.745Z,991.55
2018-03-15T17:41:21.735Z,991.57
2018-03-15T17:43:16.157Z,991.65
2018-03-15T17:44:16.184Z,991.67
2018-03-15T17:46:10.673Z,991.73
2018-03-15T17:47:11.125Z,991.76
2018-03-15T17:49:06.078Z,991.82
2018-03-15T17:50:05.021Z,991.84
2018-03-15T17:51:59.464Z,991.89
2018-03-15T17:52:59.469Z,991.90
2018-03-15T17:54:52.898Z,991.98
2018-03-15T17:55:53.419Z,992.00
2018-03-15T17:57:47.366Z,992.04
2018-03-15T17:58:47.349Z,992.11
2018-03-15T18:00:40.783Z,992.16
2018-03-15T18:01:42.313Z,992.15
2018-03-15T18:03:35.272Z,992.17
2018-03-15T18:04:35.233Z,992.24
2018-03-15T18:06:29.672Z,992.23
2018-03-15T18:07:29.686Z,992.25
2018-03-15T18:09:24.626Z,992.22
2018-03-15T18:10:24.117Z,992.21
2018-03-15T18:12:17.610Z,992.23
2018-03-15T18:13:17.601Z,992.29
2018-03-15T18:15:12.016Z,992.23
2018-03-15T18:16:12.017Z,992.15
2018-03-15T18:18:07.461Z,992.21
2018-03-15T18:19:06.480Z,992.26
2018-03-15T18:21:00.983Z,992.28
2018-03-15T18:22:01.432Z,992.25
2018-03-15T18:23:54.386Z,992.25
2018-03-15T18:24:54.380Z,992.27
2018-03-15T18:26:49.336Z,992.29
2018-03-15T18:27:48.824Z,992.32